sensor_id;sensor_type;location;lat;lon;timestamp;pressure;altitude;pressure_sealevel;temperature;humidity
24160;BME280;62385;41.594;23.808;2023-03-03T00:01:30;95354.00;;;10.48;71.38
24160;BME280;62385;41.594;23.808;2023-03-03T00:03:58;95355.91;;;10.31;71.24
24160;BME280;62385;41.594;23.808;2023-03-03T00:06:24;95348.06;;;10.46;70.60
24160;BME280;62385;41.594;23.808;2023-03-03T00:08:50;95341.59;;;10.40;71.14
24160;BME280;62385;41.594;23.808;2023-03-03T00:11:16;95339.88;;;10.55;70.27
24160;BME280;62385;41.594;23.808;2023-03-03T00:13:52;95336.22;;;10.56;70.76
24160;BME280;62385;41.594;23.808;2023-03-03T00:16:29;95333.56;;;10.56;70.66
24160;BME280;62385;41.594;23.808;2023-03-03T00:18:55;95327.78;;;10.53;70.35
24160;BME280;62385;41.594;23.808;2023-03-03T00:21:51;95328.13;;;10.50;71.04
24160;BME280;62385;41.594;23.808;2023-03-03T00:24:36;95336.44;;;10.47;71.27
24160;BME280;62385;41.594;23.808;2023-03-03T00:27:35;95332.50;;;10.43;71.10
24160;BME280;62385;41.594;23.808;2023-03-03T00:30:02;95333.25;;;10.21;72.56
24160;BME280;62385;41.594;23.808;2023-03-03T00:37:53;95325.69;;;9.93;75.16
24160;BME280;62385;41.594;23.808;2023-03-03T00:40:26;95319.69;;;9.99;74.26
24160;BME280;62385;41.594;23.808;2023-03-03T00:42:58;95326.22;;;9.81;75.30
24160;BME280;62385;41.594;23.808;2023-03-03T00:50:48;95322.03;;;9.94;74.71
24160;BME280;62385;41.594;23.808;2023-03-03T00:53:18;95319.22;;;9.88;74.68
24160;BME280;62385;41.594;23.808;2023-03-03T00:55:47;95309.25;;;10.06;74.85
24160;BME280;62385;41.594;23.808;2023-03-03T00:58:13;95310.22;;;10.05;73.98
24160;BME280;62385;41.594;23.808;2023-03-03T01:00:43;95307.22;;;10.08;73.72
24160;BME280;62385;41.594;23.808;2023-03-03T01:03:14;95301.06;;;9.77;74.59
24160;BME280;62385;41.594;23.808;2023-03-03T01:05:41;95307.44;;;9.90;75.29
24160;BME280;62385;41.594;23.808;2023-03-03T01:08:06;95300.50;;;9.97;74.58
24160;BME280;62385;41.594;23.808;2023-03-03T01:10:37;95303.16;;;9.89;75.25
24160;BME280;62385;41.594;23.808;2023-03-03T01:13:04;95298.06;;;9.80;74.92
24160;BME280;62385;41.594;23.808;2023-03-03T01:15:30;95297.91;;;9.73;75.11
24160;BME280;62385;41.594;23.808;2023-03-03T01:17:56;95282.88;;;9.57;75.10
24160;BME280;62385;41.594;23.808;2023-03-03T01:20:22;95278.06;;;9.53;75.59
24160;BME280;62385;41.594;23.808;2023-03-03T01:22:48;95275.69;;;9.74;75.35
24160;BME280;62385;41.594;23.808;2023-03-03T01:25:14;95275.44;;;10.00;74.07
24160;BME280;62385;41.594;23.808;2023-03-03T01:27:39;95276.06;;;10.18;73.57
24160;BME280;62385;41.594;23.808;2023-03-03T01:30:06;95271.78;;;10.01;74.01
24160;BME280;62385;41.594;23.808;2023-03-03T01:32:33;95265.94;;;10.13;73.79
24160;BME280;62385;41.594;23.808;2023-03-03T01:34:58;95278.13;;;9.92;73.75
24160;BME280;62385;41.594;23.808;2023-03-03T01:37:24;95278.28;;;9.90;74.22
24160;BME280;62385;41.594;23.808;2023-03-03T01:39:52;95285.22;;;9.99;73.99
24160;BME280;62385;41.594;23.808;2023-03-03T01:42:18;95274.78;;;9.98;74.45
24160;BME280;62385;41.594;23.808;2023-03-03T01:44:44;95279.03;;;10.07;74.11
24160;BME280;62385;41.594;23.808;2023-03-03T01:47:21;95283.13;;;9.79;74.99
24160;BME280;62385;41.594;23.808;2023-03-03T01:49:57;95282.63;;;9.83;75.49
24160;BME280;62385;41.594;23.808;2023-03-03T01:52:38;95275.22;;;10.17;74.58
24160;BME280;62385;41.594;23.808;2023-03-03T01:55:22;95277.94;;;10.01;74.49
24160;BME280;62385;41.594;23.808;2023-03-03T01:58:10;95276.59;;;10.05;74.35
24160;BME280;62385;41.594;23.808;2023-03-03T02:00:40;95283.53;;;10.06;74.47
24160;BME280;62385;41.594;23.808;2023-03-03T02:03:06;95274.88;;;10.12;73.94
24160;BME280;62385;41.594;23.808;2023-03-03T02:05:34;95268.28;;;10.08;73.88
24160;BME280;62385;41.594;23.808;2023-03-03T02:08:00;95272.09;;;10.06;73.35
24160;BME280;62385;41.594;23.808;2023-03-03T02:10:27;95268.59;;;10.13;73.21
24160;BME280;62385;41.594;23.808;2023-03-03T02:12:57;95265.25;;;10.11;72.74
24160;BME280;62385;41.594;23.808;2023-03-03T02:15:24;95269.09;;;10.17;71.67
24160;BME280;62385;41.594;23.808;2023-03-03T02:18:14;95276.09;;;10.02;72.95
24160;BME280;62385;41.594;23.808;2023-03-03T02:20:52;95277.25;;;9.60;74.62
24160;BME280;62385;41.594;23.808;2023-03-03T02:23:27;95269.19;;;9.30;75.92
24160;BME280;62385;41.594;23.808;2023-03-03T02:28:26;95281.22;;;9.56;74.81
24160;BME280;62385;41.594;23.808;2023-03-03T02:30:59;95279.38;;;9.57;74.95
24160;BME280;62385;41.594;23.808;2023-03-03T02:33:26;95275.88;;;9.72;74.59
24160;BME280;62385;41.594;23.808;2023-03-03T02:35:52;95278.28;;;9.90;74.19
24160;BME280;62385;41.594;23.808;2023-03-03T02:41:36;95271.63;;;9.94;75.11
24160;BME280;62385;41.594;23.808;2023-03-03T02:44:08;95283.31;;;9.77;75.22
24160;BME280;62385;41.594;23.808;2023-03-03T02:46:40;95285.47;;;9.73;75.43
24160;BME280;62385;41.594;23.808;2023-03-03T02:49:09;95280.09;;;9.90;75.09
24160;BME280;62385;41.594;23.808;2023-03-03T02:51:35;95288.91;;;9.82;74.87
24160;BME280;62385;41.594;23.808;2023-03-03T02:54:02;95282.03;;;9.57;75.77
24160;BME280;62385;41.594;23.808;2023-03-03T02:56:30;95287.50;;;9.63;75.69
24160;BME280;62385;41.594;23.808;2023-03-03T02:58:57;95285.84;;;9.62;75.18
24160;BME280;62385;41.594;23.808;2023-03-03T03:01:23;95288.97;;;9.66;75.73
24160;BME280;62385;41.594;23.808;2023-03-03T03:03:51;95290.34;;;9.46;76.20
24160;BME280;62385;41.594;23.808;2023-03-03T03:06:19;95285.69;;;9.64;75.78
24160;BME280;62385;41.594;23.808;2023-03-03T03:08:45;95292.38;;;9.11;76.98
24160;BME280;62385;41.594;23.808;2023-03-03T03:11:11;95293.88;;;9.14;77.03
24160;BME280;62385;41.594;23.808;2023-03-03T03:13:38;95291.22;;;9.30;76.30
24160;BME280;62385;41.594;23.808;2023-03-03T03:16:04;95294.69;;;9.31;77.28
24160;BME280;62385;41.594;23.808;2023-03-03T03:18:30;95288.38;;;9.40;76.20
24160;BME280;62385;41.594;23.808;2023-03-03T03:21:04;95281.59;;;9.37;76.82
24160;BME280;62385;41.594;23.808;2023-03-03T03:23:29;95288.41;;;9.32;76.88
24160;BME280;62385;41.594;23.808;2023-03-03T03:25:55;95295.34;;;9.16;77.24
24160;BME280;62385;41.594;23.808;2023-03-03T03:28:25;95292.22;;;9.05;76.73
24160;BME280;62385;41.594;23.808;2023-03-03T03:30:52;95288.22;;;9.25;76.69
24160;BME280;62385;41.594;23.808;2023-03-03T03:33:18;95292.06;;;8.98;76.68
24160;BME280;62385;41.594;23.808;2023-03-03T03:35:44;95288.41;;;9.32;76.59
24160;BME280;62385;41.594;23.808;2023-03-03T03:38:14;95290.22;;;8.91;76.04
24160;BME280;62385;41.594;23.808;2023-03-03T03:40:41;95292.72;;;8.76;77.07
24160;BME280;62385;41.594;23.808;2023-03-03T03:43:07;95283.44;;;8.96;75.80
24160;BME280;62385;41.594;23.808;2023-03-03T03:45:33;95287.91;;;8.79;75.61
24160;BME280;62385;41.594;23.808;2023-03-03T03:48:00;95279.97;;;8.96;75.26
24160;BME280;62385;41.594;23.808;2023-03-03T03:50:26;95285.06;;;9.30;74.47
24160;BME280;62385;41.594;23.808;2023-03-03T03:52:52;95270.84;;;9.22;73.84
24160;BME280;62385;41.594;23.808;2023-03-03T03:55:17;95290.06;;;9.16;74.21
24160;BME280;62385;41.594;23.808;2023-03-03T03:57:43;95286.78;;;8.90;74.26
24160;BME280;62385;41.594;23.808;2023-03-03T04:00:27;95289.41;;;9.06;74.19
24160;BME280;62385;41.594;23.808;2023-03-03T04:02:57;95288.09;;;9.02;73.60
24160;BME280;62385;41.594;23.808;2023-03-03T04:05:23;95289.41;;;9.06;74.46
24160;BME280;62385;41.594;23.808;2023-03-03T04:07:49;95284.94;;;8.91;74.45
24160;BME280;62385;41.594;23.808;2023-03-03T04:10:16;95286.44;;;8.93;74.22
24160;BME280;62385;41.594;23.808;2023-03-03T04:12:43;95293.03;;;9.13;74.19
24160;BME280;62385;41.594;23.808;2023-03-03T04:15:12;95271.34;;;9.18;73.53
24160;BME280;62385;41.594;23.808;2023-03-03T04:17:39;95279.31;;;9.02;73.85
24160;BME280;62385;41.594;23.808;2023-03-03T04:20:07;95292.56;;;9.02;74.45
24160;BME280;62385;41.594;23.808;2023-03-03T04:22:33;95279.44;;;9.33;73.75
24160;BME280;62385;41.594;23.808;2023-03-03T04:25:05;95293.16;;;9.36;74.11
24160;BME280;62385;41.594;23.808;2023-03-03T04:27:36;95290.75;;;8.94;74.10
24160;BME280;62385;41.594;23.808;2023-03-03T04:30:04;95286.94;;;8.97;74.53
24160;BME280;62385;41.594;23.808;2023-03-03T04:32:31;95294.03;;;8.72;73.67
24160;BME280;62385;41.594;23.808;2023-03-03T04:35:00;95302.47;;;8.75;73.37
24160;BME280;62385;41.594;23.808;2023-03-03T04:37:26;95292.38;;;8.95;71.93
24160;BME280;62385;41.594;23.808;2023-03-03T04:39:52;95293.69;;;9.15;73.04
24160;BME280;62385;41.594;23.808;2023-03-03T04:42:19;95290.22;;;9.31;73.42
24160;BME280;62385;41.594;23.808;2023-03-03T04:44:44;95290.06;;;9.16;73.56
24160;BME280;62385;41.594;23.808;2023-03-03T04:47:10;95298.97;;;9.15;73.14
24160;BME280;62385;41.594;23.808;2023-03-03T04:49:36;95287.75;;;9.21;73.40
24160;BME280;62385;41.594;23.808;2023-03-03T04:52:03;95292.19;;;9.29;74.13
24160;BME280;62385;41.594;23.808;2023-03-03T04:54:28;95297.00;;;9.34;73.68
24160;BME280;62385;41.594;23.808;2023-03-03T04:56:55;95294.34;;;9.25;73.21
24160;BME280;62385;41.594;23.808;2023-03-03T04:59:21;95294.50;;;9.24;74.13
24160;BME280;62385;41.594;23.808;2023-03-03T05:01:48;95302.47;;;9.16;74.53
24160;BME280;62385;41.594;23.808;2023-03-03T05:04:16;95290.06;;;9.00;74.22
24160;BME280;62385;41.594;23.808;2023-03-03T05:06:41;95279.31;;;8.94;75.48
24160;BME280;62385;41.594;23.808;2023-03-03T05:09:07;95300.66;;;8.92;76.52
24160;BME280;62385;41.594;23.808;2023-03-03T05:11:34;95301.34;;;9.10;75.96
24160;BME280;62385;41.594;23.808;2023-03-03T05:13:59;95302.66;;;9.14;76.02
24160;BME280;62385;41.594;23.808;2023-03-03T05:16:25;95306.63;;;9.26;75.25
24160;BME280;62385;41.594;23.808;2023-03-03T05:18:51;95298.50;;;9.04;75.53
24160;BME280;62385;41.594;23.808;2023-03-03T05:21:16;95302.97;;;9.03;76.06
24160;BME280;62385;41.594;23.808;2023-03-03T05:23:43;95306.63;;;9.02;75.25
24160;BME280;62385;41.594;23.808;2023-03-03T05:26:09;95306.94;;;9.07;75.72
24160;BME280;62385;41.594;23.808;2023-03-03T05:28:35;95318.84;;;9.11;75.26
24160;BME280;62385;41.594;23.808;2023-03-03T05:31:01;95304.78;;;9.03;76.47
24160;BME280;62385;41.594;23.808;2023-03-03T05:33:27;95322.50;;;9.02;75.90
24160;BME280;62385;41.594;23.808;2023-03-03T05:35:56;95316.72;;;9.07;75.95
24160;BME280;62385;41.594;23.808;2023-03-03T05:38:23;95315.38;;;9.27;74.87
24160;BME280;62385;41.594;23.808;2023-03-03T05:40:49;95321.50;;;9.36;74.87
24160;BME280;62385;41.594;23.808;2023-03-03T05:43:15;95314.53;;;9.43;73.87
24160;BME280;62385;41.594;23.808;2023-03-03T05:45:41;95316.72;;;9.31;74.62
24160;BME280;62385;41.594;23.808;2023-03-03T05:48:07;95317.84;;;9.20;73.43
24160;BME280;62385;41.594;23.808;2023-03-03T05:50:35;95315.88;;;9.22;74.24
24160;BME280;62385;41.594;23.808;2023-03-03T05:53:01;95322.16;;;9.38;74.66
24160;BME280;62385;41.594;23.808;2023-03-03T05:55:27;95324.31;;;9.42;74.57
24160;BME280;62385;41.594;23.808;2023-03-03T05:57:52;95316.00;;;9.45;73.84
24160;BME280;62385;41.594;23.808;2023-03-03T06:00:18;95321.31;;;9.45;73.82
24160;BME280;62385;41.594;23.808;2023-03-03T06:02:44;95329.25;;;9.53;74.40
24160;BME280;62385;41.594;23.808;2023-03-03T06:05:10;95321.78;;;9.57;74.50
24160;BME280;62385;41.594;23.808;2023-03-03T06:07:36;95329.72;;;9.57;74.31
24160;BME280;62385;41.594;23.808;2023-03-03T06:10:02;95332.38;;;9.73;73.97
24160;BME280;62385;41.594;23.808;2023-03-03T06:12:30;95338.19;;;9.60;74.04
24160;BME280;62385;41.594;23.808;2023-03-03T06:14:56;95331.56;;;9.64;73.79
24160;BME280;62385;41.594;23.808;2023-03-03T06:17:23;95334.19;;;9.81;73.13
24160;BME280;62385;41.594;23.808;2023-03-03T06:19:48;95334.69;;;9.76;73.52
24160;BME280;62385;41.594;23.808;2023-03-03T06:22:14;95339.84;;;9.61;73.57
24160;BME280;62385;41.594;23.808;2023-03-03T06:24:39;95349.81;;;9.35;74.71
24160;BME280;62385;41.594;23.808;2023-03-03T06:27:05;95350.13;;;9.40;74.13
24160;BME280;62385;41.594;23.808;2023-03-03T06:29:30;95351.75;;;9.57;74.17
24160;BME280;62385;41.594;23.808;2023-03-03T06:31:56;95356.91;;;9.51;74.01
24160;BME280;62385;41.594;23.808;2023-03-03T06:34:22;95359.94;;;9.32;73.77
24160;BME280;62385;41.594;23.808;2023-03-03T06:36:47;95350.97;;;9.16;74.67
24160;BME280;62385;41.594;23.808;2023-03-03T06:39:14;95359.59;;;9.35;74.08
24160;BME280;62385;41.594;23.808;2023-03-03T06:41:39;95366.00;;;8.84;74.72
24160;BME280;62385;41.594;23.808;2023-03-03T06:44:05;95377.28;;;8.94;74.28
24160;BME280;62385;41.594;23.808;2023-03-03T06:46:31;95374.16;;;9.31;73.61
24160;BME280;62385;41.594;23.808;2023-03-03T06:48:56;95379.56;;;8.80;73.74
24160;BME280;62385;41.594;23.808;2023-03-03T06:51:24;95376.94;;;8.97;73.61
24160;BME280;62385;41.594;23.808;2023-03-03T06:53:55;95377.72;;;8.73;73.95
24160;BME280;62385;41.594;23.808;2023-03-03T06:56:23;95374.78;;;8.84;74.59
24160;BME280;62385;41.594;23.808;2023-03-03T06:58:52;95374.91;;;8.74;73.14
24160;BME280;62385;41.594;23.808;2023-03-03T07:01:18;95378.31;;;8.51;73.90
24160;BME280;62385;41.594;23.808;2023-03-03T07:03:44;95373.53;;;8.54;73.55
24160;BME280;62385;41.594;23.808;2023-03-03T07:06:21;95371.75;;;8.63;73.62
24160;BME280;62385;41.594;23.808;2023-03-03T07:08:48;95374.53;;;8.61;73.49
24160;BME280;62385;41.594;23.808;2023-03-03T07:11:17;95363.22;;;9.09;73.07
24160;BME280;62385;41.594;23.808;2023-03-03T07:13:47;95367.19;;;8.89;73.63
24160;BME280;62385;41.594;23.808;2023-03-03T07:16:15;95369.16;;;9.03;72.96
24160;BME280;62385;41.594;23.808;2023-03-03T07:18:54;95368.03;;;9.30;72.79
24160;BME280;62385;41.594;23.808;2023-03-03T07:21:33;95364.53;;;9.30;72.77
24160;BME280;62385;41.594;23.808;2023-03-03T07:24:00;95368.03;;;9.38;72.36
24160;BME280;62385;41.594;23.808;2023-03-03T07:26:34;95365.69;;;9.67;72.16
24160;BME280;62385;41.594;23.808;2023-03-03T07:29:26;95355.09;;;9.59;71.60
24160;BME280;62385;41.594;23.808;2023-03-03T07:31:54;95357.28;;;10.19;70.73
24160;BME280;62385;41.594;23.808;2023-03-03T07:34:35;95346.59;;;9.80;70.05
24160;BME280;62385;41.594;23.808;2023-03-03T07:37:36;95347.22;;;10.45;69.71
24160;BME280;62385;41.594;23.808;2023-03-03T07:42:58;95347.00;;;10.86;68.46
24160;BME280;62385;41.594;23.808;2023-03-03T07:45:34;95334.38;;;10.57;69.04
24160;BME280;62385;41.594;23.808;2023-03-03T07:48:30;95342.22;;;10.03;69.89
24160;BME280;62385;41.594;23.808;2023-03-03T07:51:04;95342.75;;;10.46;68.34
24160;BME280;62385;41.594;23.808;2023-03-03T07:53:33;95332.25;;;10.83;67.09
24160;BME280;62385;41.594;23.808;2023-03-03T07:56:00;95329.25;;;11.98;64.82
24160;BME280;62385;41.594;23.808;2023-03-03T07:58:38;95327.50;;;12.06;64.86
24160;BME280;62385;41.594;23.808;2023-03-03T08:04:15;95321.75;;;11.87;65.19
24160;BME280;62385;41.594;23.808;2023-03-03T08:07:01;95319.31;;;11.63;65.16
24160;BME280;62385;41.594;23.808;2023-03-03T08:12:32;95319.63;;;11.83;64.96
24160;BME280;62385;41.594;23.808;2023-03-03T08:15:14;95315.91;;;11.69;64.27
24160;BME280;62385;41.594;23.808;2023-03-03T08:17:41;95327.69;;;11.37;66.24
24160;BME280;62385;41.594;23.808;2023-03-03T08:23:11;95327.00;;;11.58;65.16
24160;BME280;62385;41.594;23.808;2023-03-03T08:25:38;95327.72;;;11.52;64.79
24160;BME280;62385;41.594;23.808;2023-03-03T08:28:04;95317.81;;;12.13;63.59
24160;BME280;62385;41.594;23.808;2023-03-03T08:30:29;95312.09;;;11.86;64.64
24160;BME280;62385;41.594;23.808;2023-03-03T08:32:56;95306.41;;;11.37;65.05
24160;BME280;62385;41.594;23.808;2023-03-03T08:35:22;95308.75;;;11.70;63.91
24160;BME280;62385;41.594;23.808;2023-03-03T08:37:48;95305.59;;;11.37;64.13
24160;BME280;62385;41.594;23.808;2023-03-03T08:40:14;95317.69;;;11.77;63.58
24160;BME280;62385;41.594;23.808;2023-03-03T08:42:39;95316.53;;;11.42;65.35
24160;BME280;62385;41.594;23.808;2023-03-03T08:45:05;95314.63;;;11.50;65.50
24160;BME280;62385;41.594;23.808;2023-03-03T08:47:31;95313.28;;;11.32;66.36
24160;BME280;62385;41.594;23.808;2023-03-03T08:49:57;95307.06;;;11.91;64.17
24160;BME280;62385;41.594;23.808;2023-03-03T08:52:24;95314.25;;;11.68;65.65
24160;BME280;62385;41.594;23.808;2023-03-03T08:54:51;95313.09;;;11.85;63.74
24160;BME280;62385;41.594;23.808;2023-03-03T08:57:17;95307.69;;;12.37;63.72
24160;BME280;62385;41.594;23.808;2023-03-03T08:59:43;95307.19;;;12.48;63.73
24160;BME280;62385;41.594;23.808;2023-03-03T09:02:09;95309.59;;;13.01;60.45
24160;BME280;62385;41.594;23.808;2023-03-03T09:04:34;95305.44;;;12.91;61.28
24160;BME280;62385;41.594;23.808;2023-03-03T09:07:00;95304.88;;;12.96;61.97
24160;BME280;62385;41.594;23.808;2023-03-03T09:09:26;95310.88;;;12.83;60.71
24160;BME280;62385;41.594;23.808;2023-03-03T09:12:05;95298.63;;;12.89;61.16
24160;BME280;62385;41.594;23.808;2023-03-03T09:14:31;95306.41;;;12.69;63.10
24160;BME280;62385;41.594;23.808;2023-03-03T09:16:57;95306.09;;;12.58;63.97
24160;BME280;62385;41.594;23.808;2023-03-03T09:19:28;95300.75;;;12.58;63.85
24160;BME280;62385;41.594;23.808;2023-03-03T09:21:58;95299.59;;;12.31;62.70
24160;BME280;62385;41.594;23.808;2023-03-03T09:24:28;95309.63;;;12.29;63.43
24160;BME280;62385;41.594;23.808;2023-03-03T09:26:55;95312.84;;;12.10;64.48
24160;BME280;62385;41.594;23.808;2023-03-03T09:29:27;95320.38;;;11.54;66.10
24160;BME280;62385;41.594;23.808;2023-03-03T09:31:59;95319.28;;;12.00;62.99
24160;BME280;62385;41.594;23.808;2023-03-03T09:36:55;95316.03;;;12.05;63.74
24160;BME280;62385;41.594;23.808;2023-03-03T09:39:25;95316.06;;;11.90;65.64
24160;BME280;62385;41.594;23.808;2023-03-03T09:50:11;95319.63;;;11.97;62.78
24160;BME280;62385;41.594;23.808;2023-03-03T10:03:36;95320.91;;;12.01;63.44
24160;BME280;62385;41.594;23.808;2023-03-03T10:06:31;95317.72;;;11.91;62.58
24160;BME280;62385;41.594;23.808;2023-03-03T10:14:26;95304.38;;;12.50;60.51
24160;BME280;62385;41.594;23.808;2023-03-03T10:17:05;95312.19;;;12.37;61.07
24160;BME280;62385;41.594;23.808;2023-03-03T10:19:40;95310.03;;;12.62;61.21
24160;BME280;62385;41.594;23.808;2023-03-03T10:22:34;95308.00;;;12.13;62.13
24160;BME280;62385;41.594;23.808;2023-03-03T10:25:37;95306.78;;;12.16;62.48
24160;BME280;62385;41.594;23.808;2023-03-03T10:33:52;95312.94;;;12.01;63.75
24160;BME280;62385;41.594;23.808;2023-03-03T10:45:03;95287.94;;;12.68;62.39
24160;BME280;62385;41.594;23.808;2023-03-03T10:50:33;95283.63;;;12.31;61.00
24160;BME280;62385;41.594;23.808;2023-03-03T10:56:21;95275.81;;;12.44;61.48
24160;BME280;62385;41.594;23.808;2023-03-03T10:59:12;95275.47;;;12.68;60.93
24160;BME280;62385;41.594;23.808;2023-03-03T11:07:12;95274.50;;;12.04;60.76
24160;BME280;62385;41.594;23.808;2023-03-03T11:12:41;95270.19;;;12.54;58.03
24160;BME280;62385;41.594;23.808;2023-03-03T11:16:32;95266.03;;;12.30;61.07
24160;BME280;62385;41.594;23.808;2023-03-03T11:18:34;95259.59;;;12.24;60.27
24160;BME280;62385;41.594;23.808;2023-03-03T11:23:41;95256.22;;;12.01;60.28
24160;BME280;62385;41.594;23.808;2023-03-03T11:26:31;95256.91;;;12.39;60.64
24160;BME280;62385;41.594;23.808;2023-03-03T11:29:54;95245.47;;;13.23;59.57
24160;BME280;62385;41.594;23.808;2023-03-03T11:35:12;95242.53;;;12.97;60.30
24160;BME280;62385;41.594;23.808;2023-03-03T11:43:29;95232.25;;;12.52;58.87
24160;BME280;62385;41.594;23.808;2023-03-03T11:46:02;95237.03;;;12.56;59.38
24160;BME280;62385;41.594;23.808;2023-03-03T11:48:41;95234.28;;;12.28;59.13
24160;BME280;62385;41.594;23.808;2023-03-03T11:56:50;95220.47;;;13.52;56.67
24160;BME280;62385;41.594;23.808;2023-03-03T12:01:56;95227.41;;;12.76;57.12
24160;BME280;62385;41.594;23.808;2023-03-03T12:04:37;95218.88;;;13.58;56.39
24160;BME280;62385;41.594;23.808;2023-03-03T12:20:41;95194.50;;;13.33;59.33
24160;BME280;62385;41.594;23.808;2023-03-03T12:26:15;95203.66;;;13.03;59.47
24160;BME280;62385;41.594;23.808;2023-03-03T12:28:49;95202.09;;;13.36;58.53
24160;BME280;62385;41.594;23.808;2023-03-03T12:37:17;95204.38;;;14.08;56.08
24160;BME280;62385;41.594;23.808;2023-03-03T12:40:09;95196.22;;;13.81;57.72
24160;BME280;62385;41.594;23.808;2023-03-03T12:48:07;95206.03;;;14.22;55.81
24160;BME280;62385;41.594;23.808;2023-03-03T12:56:39;95208.25;;;13.71;57.73
24160;BME280;62385;41.594;23.808;2023-03-03T12:59:09;95200.91;;;13.73;57.04
24160;BME280;62385;41.594;23.808;2023-03-03T13:04:32;95194.13;;;14.18;56.67
24160;BME280;62385;41.594;23.808;2023-03-03T13:10:28;95189.28;;;13.87;58.27
24160;BME280;62385;41.594;23.808;2023-03-03T13:16:21;95187.81;;;13.50;57.68
24160;BME280;62385;41.594;23.808;2023-03-03T13:19:30;95181.41;;;14.20;56.51
24160;BME280;62385;41.594;23.808;2023-03-03T13:25:18;95176.84;;;14.88;55.13
24160;BME280;62385;41.594;23.808;2023-03-03T13:27:52;95172.91;;;14.70;56.35
24160;BME280;62385;41.594;23.808;2023-03-03T13:30:22;95178.63;;;14.54;56.90
24160;BME280;62385;41.594;23.808;2023-03-03T13:33:07;95179.00;;;14.38;56.66
24160;BME280;62385;41.594;23.808;2023-03-03T13:35:54;95177.72;;;14.27;56.81
24160;BME280;62385;41.594;23.808;2023-03-03T13:38:36;95172.88;;;13.56;56.78
24160;BME280;62385;41.594;23.808;2023-03-03T13:43:57;95175.22;;;13.65;57.72
24160;BME280;62385;41.594;23.808;2023-03-03T13:56:16;95176.22;;;13.09;60.32
24160;BME280;62385;41.594;23.808;2023-03-03T14:02:01;95170.09;;;13.70;57.69
24160;BME280;62385;41.594;23.808;2023-03-03T14:07:10;95165.78;;;13.69;58.06
24160;BME280;62385;41.594;23.808;2023-03-03T14:12:19;95164.81;;;13.43;58.26
24160;BME280;62385;41.594;23.808;2023-03-03T14:17:39;95159.31;;;13.92;56.00
24160;BME280;62385;41.594;23.808;2023-03-03T14:23:00;95166.06;;;12.91;58.91
24160;BME280;62385;41.594;23.808;2023-03-03T14:25:26;95170.34;;;12.92;59.22
24160;BME280;62385;41.594;23.808;2023-03-03T14:28:21;95162.09;;;13.36;58.77
24160;BME280;62385;41.594;23.808;2023-03-03T14:30:48;95160.63;;;13.68;58.06
24160;BME280;62385;41.594;23.808;2023-03-03T14:33:19;95168.03;;;12.82;58.63
24160;BME280;62385;41.594;23.808;2023-03-03T14:38:39;95161.94;;;13.44;57.35
24160;BME280;62385;41.594;23.808;2023-03-03T14:43:41;95158.47;;;13.50;58.52
24160;BME280;62385;41.594;23.808;2023-03-03T14:46:34;95159.09;;;13.18;59.88
24160;BME280;62385;41.594;23.808;2023-03-03T14:52:20;95163.91;;;12.80;59.79
24160;BME280;62385;41.594;23.808;2023-03-03T14:54:49;95154.03;;;12.53;59.10
24160;BME280;62385;41.594;23.808;2023-03-03T14:59:59;95157.47;;;13.17;58.49
24160;BME280;62385;41.594;23.808;2023-03-03T15:02:36;95154.31;;;12.85;59.73
24160;BME280;62385;41.594;23.808;2023-03-03T15:05:18;95142.41;;;13.09;59.01
24160;BME280;62385;41.594;23.808;2023-03-03T15:07:48;95145.34;;;13.14;60.26
24160;BME280;62385;41.594;23.808;2023-03-03T15:10:34;95163.16;;;12.22;60.54
24160;BME280;62385;41.594;23.808;2023-03-03T15:16:04;95157.25;;;12.90;59.41
24160;BME280;62385;41.594;23.808;2023-03-03T15:18:31;95156.53;;;12.54;60.89
24160;BME280;62385;41.594;23.808;2023-03-03T15:21:11;95160.22;;;12.81;60.15
24160;BME280;62385;41.594;23.808;2023-03-03T15:29:03;95164.88;;;12.30;59.97
24160;BME280;62385;41.594;23.808;2023-03-03T15:31:56;95168.91;;;13.11;59.04
24160;BME280;62385;41.594;23.808;2023-03-03T15:35:00;95172.38;;;12.05;60.06
24160;BME280;62385;41.594;23.808;2023-03-03T15:43:17;95168.09;;;11.89;62.13
24160;BME280;62385;41.594;23.808;2023-03-03T15:51:24;95171.88;;;11.66;62.31
24160;BME280;62385;41.594;23.808;2023-03-03T15:56:47;95177.63;;;11.69;61.88
24160;BME280;62385;41.594;23.808;2023-03-03T16:04:28;95199.91;;;11.24;63.62
24160;BME280;62385;41.594;23.808;2023-03-03T16:07:21;95193.31;;;11.20;63.50
24160;BME280;62385;41.594;23.808;2023-03-03T16:18:38;95213.53;;;11.06;64.48
24160;BME280;62385;41.594;23.808;2023-03-03T16:23:49;95225.03;;;10.84;65.13
24160;BME280;62385;41.594;23.808;2023-03-03T16:26:49;95216.47;;;10.74;66.33
24160;BME280;62385;41.594;23.808;2023-03-03T16:34:54;95229.44;;;10.69;66.50
24160;BME280;62385;41.594;23.808;2023-03-03T16:37:24;95227.97;;;10.44;66.90
24160;BME280;62385;41.594;23.808;2023-03-03T16:39:55;95229.38;;;10.32;66.66
24160;BME280;62385;41.594;23.808;2023-03-03T16:45:09;95238.88;;;10.26;66.98
24160;BME280;62385;41.594;23.808;2023-03-03T16:53:13;95238.69;;;10.28;66.41
24160;BME280;62385;41.594;23.808;2023-03-03T16:56:00;95243.56;;;10.16;66.46
24160;BME280;62385;41.594;23.808;2023-03-03T17:04:05;95244.50;;;10.23;66.95
24160;BME280;62385;41.594;23.808;2023-03-03T17:14:27;95270.25;;;10.14;66.52
24160;BME280;62385;41.594;23.808;2023-03-03T17:29:53;95281.50;;;10.25;65.81
24160;BME280;62385;41.594;23.808;2023-03-03T17:35:13;95284.72;;;9.96;67.12
24160;BME280;62385;41.594;23.808;2023-03-03T17:40:43;95304.34;;;9.79;67.32
24160;BME280;62385;41.594;23.808;2023-03-03T17:46:27;95312.44;;;9.93;67.25
24160;BME280;62385;41.594;23.808;2023-03-03T17:49:19;95319.25;;;9.80;68.00
24160;BME280;62385;41.594;23.808;2023-03-03T17:51:58;95317.81;;;9.61;68.37
24160;BME280;62385;41.594;23.808;2023-03-03T18:05:15;95334.22;;;9.48;69.12